createdAt,value
2017-02-08T00:00:00.672Z,2.22
2017-02-08T00:01:00.646Z,2.22
2017-02-08T00:02:00.257Z,2.22
2017-02-08T00:03:00.685Z,2.17
2017-02-08T00:04:00.587Z,2.23
2017-02-08T00:05:00.601Z,2.16
2017-02-08T00:06:00.542Z,2.22
2017-02-08T00:07:00.515Z,2.22
2017-02-08T00:08:00.488Z,2.23
2017-02-08T00:09:00.474Z,2.22
2017-02-08T00:10:00.062Z,2.22
2017-02-08T00:11:00.034Z,2.19
2017-02-08T00:12:00.406Z,2.16
2017-02-08T00:13:00.395Z,2.12
2017-02-08T00:14:00.368Z,2.16
2017-02-08T00:15:00.349Z,2.15
2017-02-08T00:15:59.926Z,2.08
2017-02-08T00:17:00.502Z,2.19
2017-02-08T00:18:00.330Z,2.1
2017-02-08T00:19:00.254Z,2.12
2017-02-08T00:20:00.244Z,2.15
2017-02-08T00:21:00.239Z,2.15
2017-02-08T00:22:00.195Z,2.13
2017-02-08T00:23:00.163Z,2.15
2017-02-08T00:23:59.755Z,2.13
2017-02-08T00:24:59.736Z,2.16
2017-02-08T00:26:00.102Z,2.13
2017-02-08T00:27:00.087Z,2.04
2017-02-08T00:28:00.085Z,2.1
2017-02-08T00:29:00.044Z,2.16
2017-02-08T00:30:00.042Z,2.02
2017-02-08T00:30:59.992Z,2.06
2017-02-08T00:31:59.983Z,2.1
2017-02-08T00:32:59.955Z,2.01
2017-02-08T00:33:59.928Z,2.02
2017-02-08T00:34:59.916Z,2.02
2017-02-08T00:35:59.888Z,2.04
2017-02-08T00:36:59.463Z,2.01
2017-02-08T00:37:59.848Z,2.02
2017-02-08T00:38:59.840Z,2.02
2017-02-08T00:39:59.392Z,1.99
2017-02-08T00:40:59.762Z,1.94
2017-02-08T00:41:59.743Z,1.99
2017-02-08T00:42:59.730Z,2.01
2017-02-08T00:43:59.709Z,2.04
2017-02-08T00:44:59.702Z,2.01
2017-02-08T00:45:59.662Z,2.02
2017-02-08T00:46:59.639Z,1.98
2017-02-08T00:47:59.623Z,1.98
2017-02-08T00:48:59.599Z,2.06
2017-02-08T00:49:59.571Z,2.08
2017-02-08T00:50:59.154Z,2.09
2017-02-08T00:51:59.127Z,2.02
2017-02-08T00:52:59.496Z,2.01
2017-02-08T00:53:59.485Z,2.08
2017-02-08T00:54:59.468Z,2.01
2017-02-08T00:55:59.432Z,2.12
2017-02-08T00:56:59.427Z,1.99
2017-02-08T00:57:59.393Z,2.01
2017-02-08T00:58:59.427Z,2.01
2017-02-08T00:59:59.365Z,2.12
2017-02-08T01:00:59.389Z,2.06
2017-02-08T01:01:59.300Z,2.06
2017-02-08T01:02:59.302Z,1.97
2017-02-08T01:03:59.254Z,2.01
2017-02-08T01:04:59.255Z,1.94
2017-02-08T01:05:59.215Z,1.93
2017-02-08T01:06:59.189Z,1.93
2017-02-08T01:07:58.784Z,1.97
2017-02-08T01:08:59.150Z,1.97
2017-02-08T01:09:59.123Z,1.99
2017-02-08T01:10:59.103Z,1.97
2017-02-08T01:11:59.142Z,1.99
2017-02-08T01:12:59.061Z,1.94
2017-02-08T01:13:59.055Z,1.91
2017-02-08T01:14:59.046Z,1.97
2017-02-08T01:15:59.026Z,1.97
2017-02-08T01:16:58.993Z,1.97
2017-02-08T01:17:58.958Z,1.94
2017-02-08T01:18:58.992Z,2.01
2017-02-08T01:19:58.956Z,1.94
2017-02-08T01:20:58.947Z,1.97
2017-02-08T01:21:58.861Z,1.97
2017-02-08T01:22:58.840Z,1.93
2017-02-08T01:23:58.825Z,2.01
2017-02-08T01:24:58.792Z,1.99
2017-02-08T01:25:58.775Z,1.94
2017-02-08T01:26:58.748Z,1.94
2017-02-08T01:27:58.722Z,1.93
2017-02-08T01:28:58.708Z,2.01
2017-02-08T01:29:58.695Z,1.94
2017-02-08T01:30:58.277Z,2.01
2017-02-08T01:31:58.634Z,1.97
2017-02-08T01:32:58.619Z,1.94
2017-02-08T01:33:58.582Z,1.97
2017-02-08T01:34:58.558Z,1.94
2017-02-08T01:35:58.196Z,2.01
2017-02-08T01:36:58.514Z,2.04
2017-02-08T01:37:58.492Z,2.01
2017-02-08T01:38:58.471Z,1.99
2017-02-08T01:39:58.447Z,1.93
2017-02-08T01:40:58.422Z,1.94
2017-02-08T01:41:58.397Z,1.94
2017-02-08T01:42:58.383Z,1.91
2017-02-08T01:43:58.364Z,2.01
2017-02-08T01:44:58.333Z,1.99
2017-02-08T01:45:58.315Z,2.04
2017-02-08T01:46:58.289Z,1.94
2017-02-08T01:47:58.301Z,1.93
2017-02-08T01:48:58.249Z,1.99
2017-02-08T01:49:58.222Z,1.99
2017-02-08T01:50:58.202Z,2.04
2017-02-08T01:51:58.177Z,1.97
2017-02-08T01:52:58.160Z,1.98
2017-02-08T01:53:58.210Z,1.98
2017-02-08T01:54:58.122Z,2.02
2017-02-08T01:55:58.089Z,1.94
2017-02-08T01:56:58.068Z,1.97
2017-02-08T01:57:58.044Z,1.94
2017-02-08T01:58:58.022Z,1.94
2017-02-08T01:59:58.001Z,2.04
2017-02-08T02:00:57.978Z,1.94
2017-02-08T02:01:58.009Z,2.01
2017-02-08T02:02:57.541Z,2.01
2017-02-08T02:03:57.516Z,2.01
2017-02-08T02:04:57.892Z,1.97
2017-02-08T02:05:57.869Z,2.01
2017-02-08T02:06:57.877Z,1.93
2017-02-08T02:07:57.825Z,1.98
2017-02-08T02:08:57.803Z,1.91
2017-02-08T02:09:57.781Z,1.99
2017-02-08T02:10:57.763Z,1.93
2017-02-08T02:11:57.734Z,1.98
2017-02-08T02:12:57.718Z,1.97
2017-02-08T02:13:57.296Z,1.94
2017-02-08T02:14:57.677Z,1.94
2017-02-08T02:15:57.647Z,1.97
2017-02-08T02:16:57.825Z,2.01
2017-02-08T02:17:57.603Z,1.97
2017-02-08T02:18:57.583Z,2.01
2017-02-08T02:19:57.165Z,2.06
2017-02-08T02:20:57.534Z,2.01
2017-02-08T02:21:57.511Z,1.98
2017-02-08T02:22:57.488Z,1.94
2017-02-08T02:23:57.467Z,1.97
2017-02-08T02:24:57.442Z,1.94
2017-02-08T02:25:57.419Z,1.97
2017-02-08T02:26:57.400Z,1.94
2017-02-08T02:27:57.375Z,1.98
2017-02-08T02:28:57.358Z,1.98
2017-02-08T02:29:57.332Z,1.94
2017-02-08T02:30:57.313Z,1.99
2017-02-08T02:31:57.292Z,1.99
2017-02-08T02:32:57.280Z,1.94
2017-02-08T02:33:57.269Z,1.94
2017-02-08T02:34:57.243Z,2.02
2017-02-08T02:35:57.201Z,2.01
2017-02-08T02:36:57.177Z,2.01
2017-02-08T02:37:57.159Z,1.93
2017-02-08T02:38:56.735Z,1.99
2017-02-08T02:39:57.116Z,1.97
2017-02-08T02:40:57.099Z,1.99
2017-02-08T02:41:57.066Z,2.01
2017-02-08T02:44:56.066Z,1.97
2017-02-08T02:45:56.982Z,2.01
2017-02-08T02:46:56.962Z,1.97
2017-02-08T02:47:56.538Z,1.93
2017-02-08T02:48:56.915Z,1.98
2017-02-08T02:49:56.890Z,1.94
2017-02-08T02:50:56.869Z,1.99
2017-02-08T02:51:56.842Z,2.02
2017-02-08T02:52:56.830Z,1.94
2017-02-08T02:53:56.803Z,1.99
2017-02-08T02:54:56.781Z,1.9
2017-02-08T02:55:56.764Z,2.01
2017-02-08T02:56:56.732Z,1.99
2017-02-08T02:57:56.711Z,1.89
2017-02-08T02:58:56.685Z,1.97
2017-02-08T02:59:56.665Z,1.94
2017-02-08T03:00:56.643Z,2.02
2017-02-08T03:01:56.624Z,1.93
2017-02-08T03:02:56.601Z,1.98
2017-02-08T03:03:56.578Z,1.98
2017-02-08T03:04:56.556Z,1.98
2017-02-08T03:05:56.543Z,1.98
2017-02-08T03:06:56.632Z,1.94
2017-02-08T03:07:56.487Z,1.99
2017-02-08T03:08:56.468Z,1.91
2017-02-08T03:09:56.443Z,1.93
2017-02-08T03:10:56.422Z,1.99
2017-02-08T03:11:56.396Z,1.98
2017-02-08T03:12:56.383Z,1.99
2017-02-08T03:13:55.961Z,1.98
2017-02-08T03:14:56.334Z,1.99
2017-02-08T03:15:56.310Z,1.94
2017-02-08T03:16:55.899Z,1.91
2017-02-08T03:17:56.266Z,1.93
2017-02-08T03:18:56.240Z,1.97
2017-02-08T03:19:56.222Z,1.87
2017-02-08T03:20:56.199Z,1.98
2017-02-08T03:21:56.193Z,1.94
2017-02-08T03:22:56.157Z,1.97
2017-02-08T03:23:56.136Z,1.93
2017-02-08T03:24:56.108Z,1.98
2017-02-08T03:25:56.083Z,1.97
2017-02-08T03:26:55.715Z,1.85
2017-02-08T03:27:56.038Z,1.99
2017-02-08T03:28:56.020Z,1.91
2017-02-08T03:29:56.000Z,1.97
2017-02-08T03:30:55.977Z,1.9
2017-02-08T03:31:55.565Z,1.91
2017-02-08T03:32:55.981Z,1.91
2017-02-08T03:33:55.906Z,1.93
2017-02-08T03:34:55.884Z,1.85
2017-02-08T03:35:55.474Z,1.91
2017-02-08T03:36:55.840Z,1.9
2017-02-08T03:37:55.821Z,1.83
2017-02-08T03:38:55.800Z,1.9
2017-02-08T03:39:55.776Z,1.9
2017-02-08T03:40:55.755Z,1.93
2017-02-08T03:41:55.734Z,1.87
2017-02-08T03:42:55.709Z,1.83
2017-02-08T03:43:55.689Z,2.01
2017-02-08T03:44:55.665Z,1.91
2017-02-08T03:45:55.648Z,1.87
2017-02-08T03:46:55.621Z,1.89
2017-02-08T03:47:55.595Z,1.93
2017-02-08T03:48:55.578Z,1.93
2017-02-08T03:49:55.549Z,1.9
2017-02-08T03:50:55.531Z,1.89
2017-02-08T03:51:55.511Z,1.91
2017-02-08T03:52:55.489Z,1.93
2017-02-08T03:53:55.518Z,1.94
2017-02-08T03:54:55.446Z,1.9
2017-02-08T03:55:55.423Z,1.9
2017-02-08T03:56:55.399Z,1.9
2017-02-08T03:57:54.985Z,1.78
2017-02-08T03:58:55.352Z,1.91
2017-02-08T03:59:55.338Z,1.83
2017-02-08T04:00:55.326Z,1.93
2017-02-08T04:01:55.300Z,1.8
2017-02-08T04:02:55.273Z,1.83
2017-02-08T04:03:55.246Z,1.82
2017-02-08T04:04:55.229Z,1.82
2017-02-08T04:05:55.205Z,1.9
2017-02-08T04:06:55.177Z,1.9
2017-02-08T04:07:55.153Z,1.94
2017-02-08T04:08:55.131Z,1.79
2017-02-08T04:09:55.107Z,1.8
2017-02-08T04:10:54.694Z,1.9
2017-02-08T04:11:55.068Z,1.91
2017-02-08T04:12:54.647Z,1.83
2017-02-08T04:13:55.026Z,1.9
2017-02-08T04:14:55.001Z,1.82
2017-02-08T04:15:54.976Z,1.82
2017-02-08T04:16:54.955Z,1.85
2017-02-08T04:17:54.932Z,1.89
2017-02-08T04:18:54.911Z,1.83
2017-02-08T04:19:54.884Z,1.8
2017-02-08T04:20:54.861Z,1.8
2017-02-08T04:21:54.496Z,1.82
2017-02-08T04:22:54.823Z,1.89
2017-02-08T04:23:54.834Z,1.87
2017-02-08T04:24:54.780Z,1.8
2017-02-08T04:25:54.755Z,1.9
2017-02-08T04:26:54.729Z,1.85
2017-02-08T04:27:54.716Z,1.85
2017-02-08T04:28:54.290Z,1.87
2017-02-08T04:29:54.665Z,1.89
2017-02-08T04:30:54.646Z,1.87
2017-02-08T04:31:54.621Z,1.83
2017-02-08T04:32:54.596Z,1.9
2017-02-08T04:33:54.573Z,1.87
2017-02-08T04:34:54.550Z,1.83
2017-02-08T04:35:54.527Z,1.85
2017-02-08T04:36:54.509Z,1.85
2017-02-08T04:37:54.484Z,1.87
2017-02-08T04:38:54.063Z,1.85
2017-02-08T04:39:54.046Z,1.85
2017-02-08T04:40:54.416Z,1.8
2017-02-08T04:41:53.998Z,1.91
2017-02-08T04:42:54.030Z,1.8
2017-02-08T04:43:54.349Z,1.87
2017-02-08T04:44:54.344Z,1.87
2017-02-08T04:45:54.307Z,1.8
2017-02-08T04:46:54.317Z,1.83
2017-02-08T04:47:54.258Z,1.87
2017-02-08T04:48:54.243Z,1.83
2017-02-08T04:49:53.827Z,1.85
2017-02-08T04:50:54.198Z,1.85
2017-02-08T04:51:54.171Z,1.89
2017-02-08T04:52:54.149Z,1.9
2017-02-08T04:53:54.126Z,1.83
2017-02-08T04:54:54.105Z,1.78
2017-02-08T04:55:54.132Z,1.82
2017-02-08T04:56:54.059Z,1.82
2017-02-08T04:57:54.038Z,1.8
2017-02-08T04:58:54.015Z,1.75
2017-02-08T04:59:53.993Z,1.8
2017-02-08T05:00:53.970Z,1.8
2017-02-08T05:01:53.947Z,1.78
2017-02-08T05:02:53.927Z,1.78
2017-02-08T05:03:53.902Z,1.82
2017-02-08T05:04:53.880Z,1.75
2017-02-08T05:05:53.860Z,1.87
2017-02-08T05:06:53.835Z,1.79
2017-02-08T05:07:53.829Z,1.79
2017-02-08T05:08:53.789Z,1.69
2017-02-08T05:09:53.767Z,1.79
2017-02-08T05:10:53.744Z,1.83
2017-02-08T05:11:53.775Z,1.71
2017-02-08T05:12:53.706Z,1.82
2017-02-08T05:13:53.678Z,1.79
2017-02-08T05:14:53.660Z,1.8
2017-02-08T05:15:53.637Z,1.75
2017-02-08T05:16:53.614Z,1.75
2017-02-08T05:17:53.193Z,1.78
2017-02-08T05:18:53.576Z,1.79
2017-02-08T05:19:53.544Z,1.68
2017-02-08T05:20:53.530Z,1.75
2017-02-08T05:21:53.499Z,1.69
2017-02-08T05:22:53.495Z,1.69
2017-02-08T05:23:53.467Z,1.69
2017-02-08T05:24:53.437Z,1.78
2017-02-08T05:25:53.415Z,1.76
2017-02-08T05:26:52.994Z,1.69
2017-02-08T05:27:52.970Z,1.71
2017-02-08T05:28:53.343Z,1.75
2017-02-08T05:29:52.927Z,1.72
2017-02-08T05:30:53.352Z,1.64
2017-02-08T05:31:53.278Z,1.69
2017-02-08T05:32:53.263Z,1.62
2017-02-08T05:33:53.233Z,1.73
2017-02-08T05:34:53.207Z,1.71
2017-02-08T05:35:53.192Z,1.76
2017-02-08T05:36:53.164Z,1.79
2017-02-08T05:37:53.140Z,1.8
2017-02-08T05:38:53.120Z,1.72
2017-02-08T05:39:53.095Z,1.71
2017-02-08T05:40:53.082Z,1.72
2017-02-08T05:41:53.053Z,1.78
2017-02-08T05:42:52.633Z,1.73
2017-02-08T05:43:53.006Z,1.64
2017-02-08T05:44:52.985Z,1.73
2017-02-08T05:45:53.016Z,1.75
2017-02-08T05:46:52.941Z,1.65
2017-02-08T05:47:52.918Z,1.68
2017-02-08T05:48:52.899Z,1.69
2017-02-08T05:49:52.874Z,1.68
2017-02-08T05:50:52.851Z,1.6
2017-02-08T05:51:52.833Z,1.68
2017-02-08T05:52:52.844Z,1.71
2017-02-08T05:53:52.395Z,1.75
2017-02-08T05:54:52.769Z,1.71
2017-02-08T05:55:52.739Z,1.68
2017-02-08T05:56:52.316Z,1.71
2017-02-08T05:57:52.304Z,1.65
2017-02-08T05:58:52.275Z,1.69
2017-02-08T05:59:52.260Z,1.69
2017-02-08T06:00:52.229Z,1.73
2017-02-08T06:01:52.608Z,1.72
2017-02-08T06:02:52.581Z,1.73
2017-02-08T06:03:52.557Z,1.75
2017-02-08T06:04:52.135Z,1.73
2017-02-08T06:05:52.513Z,1.72
2017-02-08T06:06:52.493Z,1.68
2017-02-08T06:07:52.522Z,1.69
2017-02-08T06:08:52.448Z,1.68
2017-02-08T06:09:52.425Z,1.71
2017-02-08T06:10:52.403Z,1.62
2017-02-08T06:11:52.382Z,1.62
2017-02-08T06:12:52.354Z,1.69
2017-02-08T06:13:52.331Z,1.65
2017-02-08T06:14:52.307Z,1.61
2017-02-08T06:15:51.894Z,1.69
2017-02-08T06:16:52.265Z,1.69
2017-02-08T06:17:52.449Z,1.64
2017-02-08T06:18:52.252Z,1.6
2017-02-08T06:19:52.216Z,1.64
2017-02-08T06:20:52.194Z,1.65
2017-02-08T06:21:51.756Z,1.57
2017-02-08T06:22:52.142Z,1.62
2017-02-08T06:23:52.112Z,1.64
2017-02-08T06:24:52.087Z,1.58
2017-02-08T06:25:52.061Z,1.54
2017-02-08T06:26:52.042Z,1.62
2017-02-08T06:27:52.019Z,1.68
2017-02-08T06:28:52.023Z,1.62
2017-02-08T06:29:51.629Z,1.62
2017-02-08T06:30:51.949Z,1.6
2017-02-08T06:31:51.927Z,1.64
2017-02-08T06:32:51.904Z,1.64
2017-02-08T06:33:51.879Z,1.62
2017-02-08T06:34:51.862Z,1.64
2017-02-08T06:35:51.834Z,1.58
2017-02-08T06:36:51.813Z,1.57
2017-02-08T06:37:51.807Z,1.6
2017-02-08T06:38:51.769Z,1.64
2017-02-08T06:39:51.747Z,1.61
2017-02-08T06:40:51.736Z,1.62
2017-02-08T06:41:51.703Z,1.61
2017-02-08T06:42:51.685Z,1.6
2017-02-08T06:43:51.659Z,1.61
2017-02-08T06:44:51.629Z,1.6
2017-02-08T06:45:51.622Z,1.64
2017-02-08T06:46:51.593Z,1.58
2017-02-08T06:47:51.171Z,1.62
2017-02-08T06:48:51.550Z,1.64
2017-02-08T06:49:51.525Z,1.57
2017-02-08T06:50:51.551Z,1.6
2017-02-08T06:51:51.480Z,1.6
2017-02-08T06:52:51.456Z,1.68
2017-02-08T06:53:51.431Z,1.57
2017-02-08T06:54:51.420Z,1.65
2017-02-08T06:55:51.386Z,1.61
2017-02-08T06:56:51.368Z,1.58
2017-02-08T06:57:51.348Z,1.57
2017-02-08T06:58:51.323Z,1.64
2017-02-08T06:59:51.301Z,1.65
2017-02-08T07:00:51.276Z,1.68
2017-02-08T07:01:50.850Z,1.64
2017-02-08T07:02:51.227Z,1.54
2017-02-08T07:03:51.207Z,1.64
2017-02-08T07:04:50.825Z,1.6
2017-02-08T07:05:51.163Z,1.6
2017-02-08T07:06:51.147Z,1.57
2017-02-08T07:07:51.139Z,1.62
2017-02-08T07:08:51.098Z,1.68
2017-02-08T07:09:51.072Z,1.61
2017-02-08T07:10:51.046Z,1.57
2017-02-08T07:11:51.024Z,1.64
2017-02-08T07:12:50.996Z,1.71
2017-02-08T07:13:50.979Z,1.68
2017-02-08T07:14:50.953Z,1.68
2017-02-08T07:15:50.934Z,1.68
2017-02-08T07:16:50.928Z,1.71
2017-02-08T07:17:50.887Z,1.6
2017-02-08T07:18:50.870Z,1.62
2017-02-08T07:19:50.846Z,1.64
2017-02-08T07:20:50.823Z,1.68
2017-02-08T07:21:50.803Z,1.65
2017-02-08T07:22:50.773Z,1.68
2017-02-08T07:23:50.357Z,1.65
2017-02-08T07:24:50.733Z,1.68
2017-02-08T07:25:50.714Z,1.68
2017-02-08T07:26:50.682Z,1.68
2017-02-08T07:27:50.662Z,1.71
2017-02-08T07:28:50.640Z,1.69
2017-02-08T07:29:50.618Z,1.68
2017-02-08T07:30:50.596Z,1.69
2017-02-08T07:31:50.572Z,1.72
2017-02-08T07:32:50.549Z,1.72
2017-02-08T07:33:50.531Z,1.69
2017-02-08T07:34:50.514Z,1.73
2017-02-08T07:35:50.542Z,1.78
2017-02-08T07:36:50.461Z,1.76
2017-02-08T07:37:50.490Z,1.73
2017-02-08T07:38:50.021Z,1.76
2017-02-08T07:39:50.394Z,1.72
2017-02-08T07:40:50.369Z,1.61
2017-02-08T07:41:50.346Z,1.69
2017-02-08T07:42:50.328Z,1.62
2017-02-08T07:43:50.306Z,1.73
2017-02-08T07:44:50.279Z,1.76
2017-02-08T07:45:50.262Z,1.78
2017-02-08T07:46:50.239Z,1.75
2017-02-08T07:47:50.212Z,1.79
2017-02-08T07:48:50.198Z,1.82
2017-02-08T07:49:50.167Z,1.79
2017-02-08T07:50:50.151Z,1.75
2017-02-08T07:51:50.120Z,1.79
2017-02-08T07:52:50.104Z,1.83
2017-02-08T07:53:49.689Z,1.89
2017-02-08T07:54:50.059Z,1.71
2017-02-08T07:55:50.039Z,1.83
2017-02-08T07:56:50.012Z,1.83
2017-02-08T07:57:49.996Z,1.87
2017-02-08T07:58:49.978Z,1.78
2017-02-08T07:59:49.950Z,1.82
2017-02-08T08:00:49.924Z,1.87
2017-02-08T08:01:49.898Z,1.85
2017-02-08T08:02:49.885Z,1.8
2017-02-08T08:03:49.862Z,1.89
2017-02-08T08:04:49.885Z,1.83
2017-02-08T08:05:49.816Z,1.93
2017-02-08T08:06:49.791Z,1.93
2017-02-08T08:07:48.990Z,1.91
2017-02-08T08:08:49.747Z,1.94
2017-02-08T08:09:49.330Z,1.91
2017-02-08T08:10:49.713Z,1.97
2017-02-08T08:11:49.681Z,1.97
2017-02-08T08:12:49.260Z,1.99
2017-02-08T08:13:49.639Z,1.97
2017-02-08T08:14:49.619Z,1.98
2017-02-08T08:15:49.190Z,1.99
2017-02-08T08:16:49.571Z,1.94
2017-02-08T08:17:49.773Z,2.13
2017-02-08T08:18:49.526Z,2.06
2017-02-08T08:19:49.108Z,2.1
2017-02-08T08:20:49.690Z,2.02
2017-02-08T08:21:49.466Z,2.04
2017-02-08T08:22:49.488Z,2.08
2017-02-08T08:23:49.411Z,2.06
2017-02-08T08:24:49.395Z,2.12
2017-02-08T08:25:49.372Z,2.12
2017-02-08T08:26:49.349Z,2.04
2017-02-08T08:27:49.325Z,2.15
2017-02-08T08:28:49.303Z,2.15
2017-02-08T08:29:49.283Z,2.12
2017-02-08T08:30:49.270Z,2.1
2017-02-08T08:31:49.240Z,2.15
2017-02-08T08:32:49.220Z,2.09
2017-02-08T08:33:48.802Z,2.17
2017-02-08T08:34:48.778Z,2.2
2017-02-08T08:35:49.151Z,2.16
2017-02-08T08:36:49.134Z,2.2
2017-02-08T08:37:49.106Z,2.19
2017-02-08T08:38:49.088Z,2.16
2017-02-08T08:39:49.069Z,2.3
2017-02-08T08:40:49.043Z,2.31
2017-02-08T08:41:49.023Z,2.34
2017-02-08T08:42:49.018Z,2.3
2017-02-08T08:43:48.582Z,2.35
2017-02-08T08:44:48.563Z,2.23
2017-02-08T08:45:48.937Z,2.34
2017-02-08T08:46:48.918Z,2.35
2017-02-08T08:47:48.886Z,2.35
2017-02-08T08:48:48.476Z,2.34
2017-02-08T08:49:48.846Z,2.33
2017-02-08T08:50:48.827Z,2.27
2017-02-08T08:51:48.803Z,2.33
2017-02-08T08:52:48.390Z,2.35
2017-02-08T08:53:48.760Z,2.34
2017-02-08T08:54:48.343Z,2.4
2017-02-08T08:55:48.319Z,2.3
2017-02-08T08:56:48.701Z,2.34
2017-02-08T08:57:48.680Z,2.33
2017-02-08T08:58:48.675Z,2.34
2017-02-08T08:59:48.689Z,2.4
2017-02-08T09:00:48.613Z,2.37
2017-02-08T09:01:48.589Z,2.44
2017-02-08T09:02:48.567Z,2.45
2017-02-08T09:03:48.541Z,2.48
2017-02-08T09:04:48.525Z,2.46
2017-02-08T09:05:48.500Z,2.46
2017-02-08T09:06:48.478Z,2.44
2017-02-08T09:07:48.066Z,2.48
2017-02-08T09:08:48.441Z,2.55
2017-02-08T09:09:48.418Z,2.55
2017-02-08T09:10:48.409Z,2.55
2017-02-08T09:11:48.378Z,2.51
2017-02-08T09:12:48.354Z,2.46
2017-02-08T09:13:48.332Z,2.56
2017-02-08T09:14:48.313Z,2.58
2017-02-08T09:15:47.900Z,2.56
2017-02-08T09:16:48.268Z,2.44
2017-02-08T09:17:48.247Z,2.49
2017-02-08T09:18:48.226Z,2.49
2017-02-08T09:19:48.204Z,2.63
2017-02-08T09:20:48.186Z,2.63
2017-02-08T09:21:48.160Z,2.56
2017-02-08T09:22:48.143Z,2.69
2017-02-08T09:23:48.118Z,2.61
2017-02-08T09:24:48.104Z,2.61
2017-02-08T09:25:48.074Z,2.63
2017-02-08T09:26:48.062Z,2.66
2017-02-08T09:27:48.037Z,2.69
2017-02-08T09:28:48.012Z,2.64
2017-02-08T09:29:47.995Z,2.61
2017-02-08T09:30:47.969Z,2.76
2017-02-08T09:31:47.984Z,2.73
2017-02-08T09:32:47.929Z,2.59
2017-02-08T09:33:47.918Z,2.81
2017-02-08T09:34:47.890Z,2.74
2017-02-08T09:35:47.485Z,2.69
2017-02-08T09:36:47.856Z,2.64
2017-02-08T09:37:47.865Z,2.71
2017-02-08T09:38:47.799Z,2.76
2017-02-08T09:39:47.785Z,2.67
2017-02-08T09:40:47.773Z,2.69
2017-02-08T09:41:47.759Z,2.76
2017-02-08T09:42:47.721Z,2.69
2017-02-08T09:43:47.699Z,2.73
2017-02-08T09:44:47.281Z,2.74
2017-02-08T09:45:47.652Z,2.77
2017-02-08T09:46:47.633Z,2.77
2017-02-08T09:47:47.611Z,2.79
2017-02-08T09:48:47.603Z,2.74
2017-02-08T09:49:47.571Z,2.77
2017-02-08T09:50:47.549Z,2.74
2017-02-08T09:51:47.535Z,2.82
2017-02-08T09:52:47.536Z,2.82
2017-02-08T09:53:47.504Z,2.82
2017-02-08T09:54:47.077Z,2.81
2017-02-08T09:55:47.453Z,2.81
2017-02-08T09:56:47.425Z,2.91
2017-02-08T09:57:47.416Z,2.91
2017-02-08T09:58:47.387Z,2.85
2017-02-08T09:59:46.596Z,2.98
2017-02-08T10:00:46.961Z,2.91
2017-02-08T10:01:47.324Z,2.92
2017-02-08T10:02:47.302Z,2.92
2017-02-08T10:03:47.290Z,3.03
2017-02-08T10:04:46.868Z,2.97
2017-02-08T10:05:46.841Z,3.07
2017-02-08T10:06:46.817Z,3.09
2017-02-08T10:07:47.196Z,3.09
2017-02-08T10:08:47.180Z,3.12
2017-02-08T10:09:47.156Z,3.16
2017-02-08T10:10:47.137Z,3.13
2017-02-08T10:11:47.109Z,3.18
2017-02-08T10:12:46.696Z,3.13
2017-02-08T10:13:47.071Z,3.16
2017-02-08T10:14:47.053Z,3.31
2017-02-08T10:15:46.629Z,3.27
2017-02-08T10:16:47.007Z,3.31
2017-02-08T10:17:46.795Z,3.3
2017-02-08T10:18:47.019Z,3.3
2017-02-08T10:19:46.555Z,3.24
2017-02-08T10:20:46.929Z,3.31
2017-02-08T10:21:46.907Z,3.36
2017-02-08T10:22:46.901Z,3.4
2017-02-08T10:23:46.870Z,3.39
2017-02-08T10:24:46.845Z,3.5
2017-02-08T10:25:46.831Z,3.44
2017-02-08T10:26:46.809Z,3.49
2017-02-08T10:27:46.786Z,3.58
2017-02-08T10:28:46.802Z,3.61
2017-02-08T10:29:46.745Z,3.6
2017-02-08T10:30:46.725Z,3.65
2017-02-08T10:31:46.707Z,3.67
2017-02-08T10:32:46.684Z,3.65
2017-02-08T10:33:46.664Z,3.65
2017-02-08T10:34:46.649Z,3.76
2017-02-08T10:35:46.624Z,3.78
2017-02-08T10:36:46.605Z,3.64
2017-02-08T10:37:46.595Z,3.8
2017-02-08T10:38:46.565Z,3.71
2017-02-08T10:39:46.556Z,3.76
2017-02-08T10:40:46.535Z,3.79
2017-02-08T10:41:46.505Z,3.79
2017-02-08T10:42:46.490Z,3.72
2017-02-08T10:43:46.070Z,3.75
2017-02-08T10:44:46.452Z,3.7
2017-02-08T10:45:46.433Z,3.75
2017-02-08T10:46:46.407Z,3.75
2017-02-08T10:47:46.390Z,3.78
2017-02-08T10:48:46.375Z,3.75
2017-02-08T10:49:46.359Z,3.82
2017-02-08T10:50:46.333Z,3.86
2017-02-08T10:51:46.317Z,3.85
2017-02-08T10:52:45.896Z,3.88
2017-02-08T10:53:46.322Z,3.89
2017-02-08T10:54:46.252Z,3.88
2017-02-08T10:55:46.233Z,3.88
2017-02-08T10:56:46.211Z,3.88
2017-02-08T10:57:46.192Z,3.9
2017-02-08T10:58:46.183Z,3.9
2017-02-08T10:59:46.166Z,3.97
2017-02-08T11:00:46.143Z,3.94
2017-02-08T11:01:46.117Z,3.97
2017-02-08T11:02:46.102Z,3.9
2017-02-08T11:03:46.080Z,3.96
2017-02-08T11:04:45.659Z,3.96
2017-02-08T11:05:46.038Z,4
2017-02-08T11:06:46.024Z,4.01
2017-02-08T11:07:45.998Z,4.03
2017-02-08T11:08:45.586Z,4.07
2017-02-08T11:09:45.966Z,4.08
2017-02-08T11:10:45.944Z,4.08
2017-02-08T11:11:45.523Z,4.18
2017-02-08T11:12:45.507Z,4.28
2017-02-08T11:13:45.093Z,4.24
2017-02-08T11:14:45.867Z,4.28
2017-02-08T11:15:45.844Z,4.29
2017-02-08T11:16:45.826Z,4.25
2017-02-08T11:17:45.806Z,4.22
2017-02-08T11:18:45.790Z,4.22
2017-02-08T11:19:45.774Z,4.21
2017-02-08T11:20:45.758Z,4.16
2017-02-08T11:21:45.736Z,4.14
2017-02-08T11:22:45.716Z,4.1
2017-02-08T11:23:45.698Z,4.15
2017-02-08T11:24:45.682Z,4.15
2017-02-08T11:25:45.656Z,4.12
2017-02-08T11:26:45.645Z,4.1
2017-02-08T11:27:45.619Z,3.98
2017-02-08T11:28:45.601Z,4.1
2017-02-08T11:29:45.581Z,4.06
2017-02-08T11:30:45.617Z,3.97
2017-02-08T11:31:45.540Z,3.96
2017-02-08T11:32:45.527Z,3.96
2017-02-08T11:33:45.507Z,3.98
2017-02-08T11:34:45.091Z,3.94
2017-02-08T11:35:45.465Z,3.94
2017-02-08T11:36:45.446Z,4
2017-02-08T11:37:45.033Z,4.01
2017-02-08T11:38:45.016Z,4.12
2017-02-08T11:39:45.389Z,4.15
2017-02-08T11:40:45.371Z,4.12
2017-02-08T11:41:45.349Z,3.98
2017-02-08T11:42:45.335Z,4.04
2017-02-08T11:43:45.310Z,4.04
2017-02-08T11:44:44.896Z,4.03
2017-02-08T11:45:45.323Z,4.04
2017-02-08T11:46:45.267Z,4.06
2017-02-08T11:47:45.282Z,4.06
2017-02-08T11:48:45.211Z,4.15
2017-02-08T11:49:45.193Z,4.08
2017-02-08T11:50:45.173Z,4.1
2017-02-08T11:51:45.155Z,4.06
2017-02-08T11:52:45.137Z,4.12
2017-02-08T11:53:44.721Z,4.16
2017-02-08T11:54:44.703Z,4.1
2017-02-08T11:55:45.078Z,4.04
2017-02-08T11:56:44.663Z,4.06
2017-02-08T11:57:45.035Z,4.04
2017-02-08T11:58:44.622Z,4.12
2017-02-08T11:59:44.608Z,4.03
2017-02-08T12:00:44.986Z,4.03
2017-02-08T12:01:44.564Z,4.03
2017-02-08T12:02:44.945Z,3.97
2017-02-08T12:03:44.921Z,3.97
2017-02-08T12:04:44.898Z,4.04
2017-02-08T12:05:44.887Z,4.04
2017-02-08T12:06:44.875Z,4.03
2017-02-08T12:07:44.847Z,4.14
2017-02-08T12:08:44.939Z,4.1
2017-02-08T12:09:44.805Z,4.01
2017-02-08T12:10:44.792Z,4.03
2017-02-08T12:11:44.765Z,3.96
2017-02-08T12:12:44.750Z,4.06
2017-02-08T12:13:44.732Z,4.06
2017-02-08T12:14:44.706Z,4.01
2017-02-08T12:15:44.695Z,4.01
2017-02-08T12:16:44.667Z,4.01
2017-02-08T12:17:44.855Z,3.97
2017-02-08T12:18:44.630Z,3.92
2017-02-08T12:19:44.613Z,3.98
2017-02-08T12:20:44.597Z,4.08
2017-02-08T12:21:44.579Z,4.15
2017-02-08T12:22:44.564Z,4.06
2017-02-08T12:23:44.532Z,4.1
2017-02-08T12:24:44.531Z,4.1
2017-02-08T12:25:44.503Z,4.06
2017-02-08T12:26:44.478Z,4.12
2017-02-08T12:27:44.063Z,4.18
2017-02-08T12:28:44.446Z,4.21
2017-02-08T12:29:44.426Z,4.21
2017-02-08T12:30:44.397Z,4.24
2017-02-08T12:31:43.980Z,4.25
2017-02-08T12:32:44.358Z,4.22
2017-02-08T12:34:13.427Z,4.15
2017-02-08T12:34:44.316Z,4.14
2017-02-08T12:35:44.297Z,4.18
2017-02-08T12:36:44.280Z,4.08
2017-02-08T12:37:44.262Z,4.15
2017-02-08T12:38:43.843Z,4.14
2017-02-08T12:39:44.279Z,4.19
2017-02-08T12:40:44.218Z,4.21
2017-02-08T12:41:44.220Z,4.24
2017-02-08T12:42:44.164Z,4.25
2017-02-08T12:43:44.138Z,4.26
2017-02-08T12:44:44.118Z,4.33
2017-02-08T12:45:44.099Z,4.34
2017-02-08T12:46:44.089Z,4.33
2017-02-08T12:47:44.085Z,4.32
2017-02-08T12:48:44.052Z,4.33
2017-02-08T12:49:44.026Z,4.36
2017-02-08T12:50:44.006Z,4.28
2017-02-08T12:51:43.594Z,4.32
2017-02-08T12:52:43.969Z,4.25
2017-02-08T12:53:43.950Z,4.37
2017-02-08T12:54:43.931Z,4.21
2017-02-08T12:55:43.910Z,4.28
2017-02-08T12:56:43.900Z,4.26
2017-02-08T12:57:43.875Z,4.33
2017-02-08T12:58:43.458Z,4.32
2017-02-08T12:59:43.840Z,4.32
2017-02-08T13:00:43.816Z,4.25
2017-02-08T13:01:43.805Z,4.19
2017-02-08T13:02:43.422Z,4.22
2017-02-08T13:03:43.755Z,4.22
2017-02-08T13:04:43.739Z,4.25
2017-02-08T13:05:43.713Z,4.21
2017-02-08T13:06:43.696Z,4.16
2017-02-08T13:07:43.690Z,4.24
2017-02-08T13:08:43.669Z,4.22
2017-02-08T13:09:43.647Z,4.22
2017-02-08T13:10:43.627Z,4.26
2017-02-08T13:11:43.609Z,4.32
2017-02-08T13:12:43.587Z,4.28
2017-02-08T13:13:42.779Z,4.36
2017-02-08T13:14:43.550Z,4.34
2017-02-08T13:15:43.537Z,4.36
2017-02-08T13:16:43.506Z,4.37
2017-02-08T13:17:43.490Z,4.42
2017-02-08T13:18:43.474Z,4.37
2017-02-08T13:19:43.469Z,4.36
2017-02-08T13:20:43.433Z,4.33
2017-02-08T13:21:43.421Z,4.36
2017-02-08T13:22:43.399Z,4.36